Time;durP1;ratioP1;P1;durP2;ratioP2;P2;SDS_P1;SDS_P2;PMS_P1;PMS_P2;Temp;Humidity;BMP_temperature;BMP_pressure;BME280_temperature;BME280_humidity;BME280_pressure;Samples;Min_cycle;Max_cycle;Signal;HPM_P1;HPM_P2
2021/07/04 00:01:51;;;;;;;10.48;9.60;;;;;;;;;;5027918;28;20530;-69
2021/07/04 00:04:16;;;;;;;11.88;10.57;;;;;;;;;;5014328;28;20048;-69
2021/07/04 00:06:41;;;;;;;10.13;9.23;;;;;;;;;;5008112;28;20034;-69
2021/07/04 00:09:07;;;;;;;10.70;9.70;;;;;;;;;;5008202;28;20280;-69
2021/07/04 00:11:32;;;;;;;10.57;9.57;;;;;;;;;;5010106;28;20268;-69
2021/07/04 00:13:57;;;;;;;10.15;9.32;;;;;;;;;;5007660;28;20285;-69
2021/07/04 00:16:22;;;;;;;11.05;10.15;;;;;;;;;;5008058;28;20069;-69
2021/07/04 00:18:47;;;;;;;10.55;9.75;;;;;;;;;;5010771;28;20039;-70
2021/07/04 00:21:13;;;;;;;11.70;10.52;;;;;;;;;;5022557;28;20030;-69
2021/07/04 00:23:38;;;;;;;11.20;10.25;;;;;;;;;;5031275;28;20040;-69
2021/07/04 00:26:04;;;;;;;11.75;10.80;;;;;;;;;;5033340;28;20017;-70
2021/07/04 00:28:29;;;;;;;10.70;9.60;;;;;;;;;;5031221;28;20057;-69
2021/07/04 00:30:54;;;;;;;10.40;9.55;;;;;;;;;;5031391;28;20037;-70
2021/07/04 00:33:20;;;;;;;10.98;10.07;;;;;;;;;;5025689;28;20691;-70
2021/07/04 00:35:45;;;;;;;10.73;9.73;;;;;;;;;;5019458;28;20062;-71
2021/07/04 00:38:11;;;;;;;11.85;10.65;;;;;;;;;;5013424;28;20068;-69
2021/07/04 00:40:36;;;;;;;10.30;9.50;;;;;;;;;;5011347;28;20045;-69
2021/07/04 00:43:03;;;;;;;12.63;11.55;;;;;;;;;;5011534;28;20423;-70
2021/07/04 00:45:28;;;;;;;12.45;11.25;;;;;;;;;;5011780;28;20467;-69
2021/07/04 00:47:54;;;;;;;11.32;10.25;;;;;;;;;;5012791;28;20179;-69
2021/07/04 00:50:20;;;;;;;10.77;9.88;;;;;;;;;;5019684;28;20506;-69
2021/07/04 00:52:46;;;;;;;14.25;11.30;;;;;;;;;;5009296;28;20030;-69
2021/07/04 00:55:13;;;;;;;14.15;13.02;;;;;;;;;;5010907;28;20045;-69
2021/07/04 00:57:38;;;;;;;11.40;10.50;;;;;;;;;;5010883;28;20042;-69
2021/07/04 01:00:06;;;;;;;11.77;10.40;;;;;;;;;;5010912;28;20029;-69
2021/07/04 01:02:31;;;;;;;11.13;10.13;;;;;;;;;;5011175;28;20024;-69
2021/07/04 01:04:57;;;;;;;11.82;10.75;;;;;;;;;;5017945;28;20049;-70
2021/07/04 01:07:22;;;;;;;11.05;9.52;;;;;;;;;;5029243;28;20091;-69
2021/07/04 01:09:47;;;;;;;11.73;10.73;;;;;;;;;;5030879;28;20052;-68
2021/07/04 01:12:13;;;;;;;13.60;12.30;;;;;;;;;;5030389;28;20025;-69
2021/07/04 01:14:38;;;;;;;11.20;10.20;;;;;;;;;;5030972;28;20033;-69
2021/07/04 01:17:04;;;;;;;12.15;11.18;;;;;;;;;;5032540;28;20521;-69
2021/07/04 01:19:29;;;;;;;13.40;12.20;;;;;;;;;;5023814;28;20034;-69
2021/07/04 01:21:56;;;;;;;11.30;10.40;;;;;;;;;;5010401;28;20255;-69
2021/07/04 01:24:22;;;;;;;12.00;10.95;;;;;;;;;;5010299;28;20037;-71
2021/07/04 01:26:49;;;;;;;10.48;9.57;;;;;;;;;;5010585;28;20026;-69
2021/07/04 01:29:15;;;;;;;10.07;9.25;;;;;;;;;;5011185;28;20650;-70
2021/07/04 01:31:40;;;;;;;11.10;10.25;;;;;;;;;;5010418;28;20040;-69
2021/07/04 01:34:06;;;;;;;12.45;11.35;;;;;;;;;;5016069;28;20053;-71
2021/07/04 01:36:31;;;;;;;11.75;10.75;;;;;;;;;;5010001;28;20022;-69
2021/07/04 01:38:56;;;;;;;19.10;14.55;;;;;;;;;;5010535;28;20029;-69
2021/07/04 01:41:21;;;;;;;13.68;12.52;;;;;;;;;;5012247;28;20025;-70
2021/07/04 01:43:47;;;;;;;13.27;12.00;;;;;;;;;;5009574;28;20033;-69
2021/07/04 01:46:12;;;;;;;11.50;10.40;;;;;;;;;;5010225;28;20383;-69
2021/07/04 01:48:37;;;;;;;11.68;10.65;;;;;;;;;;5014898;28;20044;-69
2021/07/04 01:51:03;;;;;;;10.75;9.80;;;;;;;;;;5019052;28;20114;-69
2021/07/04 01:53:28;;;;;;;12.75;11.65;;;;;;;;;;5011610;28;20026;-69
2021/07/04 01:55:54;;;;;;;11.43;10.25;;;;;;;;;;5009936;28;20129;-68
2021/07/04 01:58:19;;;;;;;12.48;11.25;;;;;;;;;;5010004;28;20633;-69
2021/07/04 02:00:45;;;;;;;11.38;10.48;;;;;;;;;;5009983;28;20407;-68
2021/07/04 02:03:10;;;;;;;10.43;9.52;;;;;;;;;;5009887;28;20074;-69
2021/07/04 02:05:36;;;;;;;10.70;9.80;;;;;;;;;;5013774;28;20030;-68
2021/07/04 02:08:01;;;;;;;10.85;9.95;;;;;;;;;;5011491;28;20049;-69
2021/07/04 02:10:31;;;;;;;10.32;9.55;;;;;;;;;;5008505;28;20050;-68
2021/07/04 02:12:56;;;;;;;10.98;10.13;;;;;;;;;;5009277;28;20087;-67
2021/07/04 02:15:31;;;;;;;10.15;8.15;;;;;;;;;;5009501;28;20491;-68
2021/07/04 02:17:56;;;;;;;13.25;12.05;;;;;;;;;;5009746;28;20026;-68
2021/07/04 02:20:34;;;;;;;10.95;10.02;;;;;;;;;;5015850;28;20406;-68
2021/07/04 02:23:05;;;;;;;11.02;10.23;;;;;;;;;;5008915;28;20037;-69
2021/07/04 02:25:31;;;;;;;;;;;;;;;;;;5008699;28;20042;-68
2021/07/04 02:27:56;;;;;;;10.43;9.27;;;;;;;;;;5009091;28;19971;-68
2021/07/04 02:30:22;;;;;;;11.10;10.07;;;;;;;;;;5008158;28;20509;-68
2021/07/04 02:32:47;;;;;;;11.45;10.45;;;;;;;;;;5009063;28;20026;-69
2021/07/04 02:35:12;;;;;;;11.90;10.88;;;;;;;;;;5015062;28;20026;-69
2021/07/04 02:37:38;;;;;;;12.85;10.60;;;;;;;;;;5009248;28;20165;-68
2021/07/04 02:40:04;;;;;;;12.68;11.63;;;;;;;;;;5009290;28;20104;-68
2021/07/04 02:42:29;;;;;;;11.90;10.90;;;;;;;;;;5008687;28;20384;-69
2021/07/04 02:44:54;;;;;;;12.40;11.30;;;;;;;;;;5009606;28;20038;-69
2021/07/04 02:47:19;;;;;;;12.67;11.33;;;;;;;;;;5011494;28;20017;-69
2021/07/04 02:49:45;;;;;;;11.83;10.73;;;;;;;;;;5012924;28;20277;-69
2021/07/04 02:52:10;;;;;;;10.82;9.88;;;;;;;;;;5008890;28;20307;-68
2021/07/04 02:54:35;;;;;;;11.57;10.67;;;;;;;;;;5008552;28;20107;-69
2021/07/04 02:57:05;;;;;;;13.00;11.80;;;;;;;;;;5009065;28;20326;-69
2021/07/04 02:59:30;;;;;;;11.05;10.10;;;;;;;;;;5010775;28;20403;-69
2021/07/04 03:01:55;;;;;;;11.02;10.20;;;;;;;;;;5009021;28;20034;-69
2021/07/04 03:04:20;;;;;;;10.20;9.40;;;;;;;;;;5011672;28;20040;-70
2021/07/04 03:06:46;;;;;;;10.20;9.40;;;;;;;;;;5008933;28;20304;-70
2021/07/04 03:09:11;;;;;;;10.20;9.40;;;;;;;;;;5009511;28;20287;-68
2021/07/04 03:11:36;;;;;;;11.77;10.53;;;;;;;;;;5009228;28;20265;-69
2021/07/04 03:14:01;;;;;;;9.55;8.85;;;;;;;;;;5010823;28;20269;-69
2021/07/04 03:16:27;;;;;;;10.85;10.05;;;;;;;;;;5009165;28;20498;-69
2021/07/04 03:18:52;;;;;;;11.00;9.95;;;;;;;;;;5011453;28;20439;-70
2021/07/04 03:21:17;;;;;;;10.03;9.33;;;;;;;;;;5009157;28;20558;-69
2021/07/04 03:23:42;;;;;;;11.20;10.20;;;;;;;;;;5007471;28;20265;-69
2021/07/04 03:26:08;;;;;;;11.13;10.23;;;;;;;;;;5010999;28;20022;-68
2021/07/04 03:28:33;;;;;;;11.80;10.75;;;;;;;;;;5009034;28;20049;-69
2021/07/04 03:30:58;;;;;;;12.38;11.38;;;;;;;;;;5009075;28;20391;-68
2021/07/04 03:33:23;;;;;;;11.70;10.52;;;;;;;;;;5008856;28;20471;-69
2021/07/04 03:35:48;;;;;;;11.63;10.30;;;;;;;;;;5018643;28;20460;-69
2021/07/04 03:38:14;;;;;;;10.80;9.98;;;;;;;;;;5010938;28;20410;-69
2021/07/04 03:40:39;;;;;;;11.23;9.93;;;;;;;;;;5007242;28;20520;-68
2021/07/04 03:43:04;;;;;;;11.23;10.27;;;;;;;;;;5008129;28;20468;-69
2021/07/04 03:45:30;;;;;;;12.10;10.90;;;;;;;;;;5008484;28;20503;-69
2021/07/04 03:47:55;;;;;;;10.60;9.75;;;;;;;;;;5008575;28;20371;-69
2021/07/04 03:50:20;;;;;;;10.30;9.40;;;;;;;;;;5011308;28;20149;-69
2021/07/04 03:52:46;;;;;;;10.97;10.07;;;;;;;;;;5023885;28;20256;-69
2021/07/04 03:55:13;;;;;;;11.68;10.68;;;;;;;;;;5031791;28;20296;-68
2021/07/04 03:57:39;;;;;;;12.20;11.13;;;;;;;;;;5032069;28;20489;-69
2021/07/04 04:00:06;;;;;;;10.57;9.68;;;;;;;;;;5032227;28;20087;-69
2021/07/04 04:02:31;;;;;;;9.88;9.18;;;;;;;;;;5033492;28;20021;-69
2021/07/04 04:04:57;;;;;;;10.98;10.00;;;;;;;;;;5021067;28;20108;-68
2021/07/04 04:07:23;;;;;;;9.60;8.80;;;;;;;;;;5012067;28;20100;-68
2021/07/04 04:09:49;;;;;;;9.80;8.93;;;;;;;;;;5012042;28;20064;-69
2021/07/04 04:12:14;;;;;;;10.25;9.32;;;;;;;;;;5011519;28;20026;-69
2021/07/04 04:14:40;;;;;;;9.32;8.55;;;;;;;;;;5011783;28;20092;-69
2021/07/04 04:17:05;;;;;;;10.68;9.77;;;;;;;;;;5013733;28;20025;-70
2021/07/04 04:19:31;;;;;;;9.43;8.50;;;;;;;;;;5018146;28;20120;-69
2021/07/04 04:21:56;;;;;;;10.30;9.25;;;;;;;;;;5023147;28;20497;-69
2021/07/04 04:24:21;;;;;;;9.68;8.93;;;;;;;;;;5030974;28;20041;-69
2021/07/04 04:26:46;;;;;;;9.00;8.30;;;;;;;;;;5031384;28;20109;-69
2021/07/04 04:29:12;;;;;;;9.43;8.38;;;;;;;;;;5033258;28;20259;-69
2021/07/04 04:31:37;;;;;;;7.80;7.20;;;;;;;;;;5031425;28;20107;-68
2021/07/04 04:34:02;;;;;;;8.33;7.70;;;;;;;;;;5029079;28;20044;-69
2021/07/04 04:36:27;;;;;;;8.70;8.00;;;;;;;;;;5022977;28;20279;-69
2021/07/04 04:38:52;;;;;;;8.57;7.88;;;;;;;;;;5013665;28;20130;-68
2021/07/04 04:41:19;;;;;;;8.07;7.37;;;;;;;;;;5013451;28;20065;-69
2021/07/04 04:43:45;;;;;;;8.45;7.85;;;;;;;;;;5011058;28;20291;-70
2021/07/04 04:46:10;;;;;;;8.82;8.13;;;;;;;;;;5011986;28;20491;-69
2021/07/04 04:48:36;;;;;;;9.68;8.95;;;;;;;;;;5011966;28;20030;-69
2021/07/04 04:51:01;;;;;;;9.30;8.60;;;;;;;;;;5018989;28;20084;-69
2021/07/04 04:53:26;;;;;;;8.88;8.18;;;;;;;;;;5012410;28;20300;-69
2021/07/04 04:55:51;;;;;;;8.33;7.50;;;;;;;;;;5010980;28;20392;-69
2021/07/04 04:58:16;;;;;;;8.65;8.05;;;;;;;;;;5011046;28;20261;-70
2021/07/04 05:00:42;;;;;;;9.10;8.40;;;;;;;;;;5011018;28;20111;-69
2021/07/04 05:03:07;;;;;;;9.07;8.32;;;;;;;;;;5008981;28;20824;-69
2021/07/04 05:05:34;;;;;;;7.43;6.90;;;;;;;;;;5018888;28;20109;-69
2021/07/04 05:08:00;;;;;;;7.53;7.03;;;;;;;;;;5010741;28;20120;-68
2021/07/04 05:10:26;;;;;;;8.15;7.40;;;;;;;;;;5010814;28;20116;-69
2021/07/04 05:12:51;;;;;;;7.45;6.85;;;;;;;;;;5010490;28;20484;-70
2021/07/04 05:15:16;;;;;;;7.23;6.67;;;;;;;;;;5010583;28;20037;-69
2021/07/04 05:17:41;;;;;;;6.53;6.03;;;;;;;;;;5010748;28;20264;-69
2021/07/04 05:20:07;;;;;;;7.17;6.57;;;;;;;;;;5018545;28;20651;-69
2021/07/04 05:22:33;;;;;;;6.88;6.38;;;;;;;;;;5018122;28;20266;-69
2021/07/04 05:24:58;;;;;;;7.72;7.03;;;;;;;;;;5010519;28;20178;-68
2021/07/04 05:27:23;;;;;;;6.53;6.03;;;;;;;;;;5010482;28;20052;-69
2021/07/04 05:29:48;;;;;;;7.05;6.40;;;;;;;;;;5010426;28;20093;-70
2021/07/04 05:32:13;;;;;;;6.90;6.30;;;;;;;;;;5012011;28;20100;-71
2021/07/04 05:34:39;;;;;;;7.93;7.32;;;;;;;;;;5015051;28;20037;-69
2021/07/04 05:37:04;;;;;;;6.33;5.77;;;;;;;;;;5010786;28;20073;-69
2021/07/04 05:39:29;;;;;;;6.30;5.90;;;;;;;;;;5010053;28;20701;-69
2021/07/04 05:41:55;;;;;;;6.60;6.05;;;;;;;;;;5010226;28;20083;-69
2021/07/04 05:44:20;;;;;;;6.18;5.78;;;;;;;;;;5011791;28;20033;-70
2021/07/04 05:46:46;;;;;;;6.30;5.90;;;;;;;;;;5010179;28;20034;-69
2021/07/04 05:49:11;;;;;;;6.53;6.03;;;;;;;;;;5010746;28;20060;-71
2021/07/04 05:51:37;;;;;;;6.23;5.73;;;;;;;;;;5021424;28;20487;-70
2021/07/04 05:54:02;;;;;;;5.63;5.22;;;;;;;;;;5010214;28;20284;-69
2021/07/04 05:56:27;;;;;;;5.80;5.40;;;;;;;;;;5011911;28;20068;-69
2021/07/04 05:58:52;;;;;;;5.60;5.20;;;;;;;;;;5010056;28;20045;-69
2021/07/04 06:01:18;;;;;;;6.07;5.68;;;;;;;;;;5008732;28;20034;-69
2021/07/04 06:03:43;;;;;;;5.47;5.03;;;;;;;;;;5009198;28;20792;-69
2021/07/04 06:06:08;;;;;;;5.13;4.70;;;;;;;;;;5013773;28;20041;-69
2021/07/04 06:08:33;;;;;;;5.30;4.90;;;;;;;;;;5011670;28;20268;-69
2021/07/04 06:10:59;;;;;;;5.80;5.30;;;;;;;;;;5008587;28;20280;-71
2021/07/04 06:13:24;;;;;;;6.03;5.63;;;;;;;;;;5008918;28;20958;-69
2021/07/04 06:15:49;;;;;;;5.22;4.72;;;;;;;;;;5008926;28;21005;-70
2021/07/04 06:18:14;;;;;;;5.67;5.17;;;;;;;;;;5009741;28;20060;-70
2021/07/04 06:20:40;;;;;;;5.57;5.15;;;;;;;;;;5012244;28;20761;-70
2021/07/04 06:23:05;;;;;;;5.10;4.80;;;;;;;;;;5046939;22;20092;-71
2021/07/04 06:25:30;;;;;;;5.33;4.93;;;;;;;;;;5047860;28;20508;-73
2021/07/04 06:27:55;;;;;;;5.83;5.43;;;;;;;;;;5049105;28;20279;-73
2021/07/04 06:30:21;;;;;;;5.82;5.03;;;;;;;;;;5047914;28;20295;-73
2021/07/04 06:32:46;;;;;;;5.50;5.10;;;;;;;;;;5048885;28;20533;-73
2021/07/04 06:35:12;;;;;;;4.97;4.65;;;;;;;;;;5046735;28;20383;-73
2021/07/04 06:37:37;;;;;;;5.45;5.00;;;;;;;;;;5027747;28;20075;-71
2021/07/04 06:40:04;;;;;;;4.63;4.32;;;;;;;;;;5029069;28;20033;-72
2021/07/04 06:42:29;;;;;;;5.05;4.65;;;;;;;;;;5028405;28;20018;-74
2021/07/04 06:44:54;;;;;;;4.97;4.65;;;;;;;;;;5028773;28;20033;-74
2021/07/04 06:47:19;;;;;;;4.97;4.60;;;;;;;;;;5031021;28;20022;-73
2021/07/04 06:49:44;;;;;;;4.90;4.60;;;;;;;;;;5030572;28;20265;-73
2021/07/04 06:52:10;;;;;;;4.57;4.27;;;;;;;;;;5036507;28;20103;-73
2021/07/04 06:54:35;;;;;;;4.40;4.10;;;;;;;;;;5026989;28;20391;-73
2021/07/04 06:57:26;;;;;;;5.00;4.30;;;;;;;;;;5028703;28;20273;-71
2021/07/04 06:59:46;;;;;;;5.50;4.47;;;;;;;;;;5028580;28;20032;-73
2021/07/04 07:02:11;;;;;;;5.07;4.68;;;;;;;;;;5030087;28;20093;-71
2021/07/04 07:04:36;;;;;;;4.13;3.87;;;;;;;;;;5027389;28;20037;-70
2021/07/04 07:07:02;;;;;;;4.63;4.32;;;;;;;;;;5048504;28;20268;-71
2021/07/04 07:09:27;;;;;;;4.18;3.70;;;;;;;;;;5046222;28;20120;-74
2021/07/04 07:11:52;;;;;;;4.27;3.93;;;;;;;;;;5048402;28;20605;-72
2021/07/04 07:14:18;;;;;;;4.93;3.72;;;;;;;;;;5049717;28;20283;-72
2021/07/04 07:16:43;;;;;;;3.97;3.75;;;;;;;;;;5048263;28;20037;-72
2021/07/04 07:19:08;;;;;;;3.80;3.50;;;;;;;;;;5047420;28;20123;-72
2021/07/04 07:21:33;;;;;;;3.40;3.20;;;;;;;;;;5032747;28;20860;-72
2021/07/04 07:23:58;;;;;;;3.57;3.37;;;;;;;;;;5026446;28;20041;-71
2021/07/04 07:26:24;;;;;;;3.60;3.30;;;;;;;;;;5030489;28;20264;-72
2021/07/04 07:28:49;;;;;;;4.67;3.23;;;;;;;;;;5032567;28;20029;-73
2021/07/04 07:31:14;;;;;;;2.87;2.67;;;;;;;;;;5031413;28;20609;-72
2021/07/04 07:33:39;;;;;;;3.00;2.80;;;;;;;;;;5032290;28;20033;-73
2021/07/04 07:36:04;;;;;;;2.77;2.57;;;;;;;;;;5038689;28;20276;-73
2021/07/04 07:38:30;;;;;;;2.83;2.70;;;;;;;;;;5034366;28;20291;-73
2021/07/04 07:40:55;;;;;;;2.83;2.63;;;;;;;;;;5032581;28;20355;-74
2021/07/04 07:43:20;;;;;;;2.03;1.93;;;;;;;;;;5031795;28;20495;-74
2021/07/04 07:45:46;;;;;;;1.93;1.83;;;;;;;;;;5032264;28;20338;-73
2021/07/04 07:48:11;;;;;;;2.60;2.40;;;;;;;;;;5031049;28;20418;-73
2021/07/04 07:50:37;;;;;;;2.00;1.90;;;;;;;;;;5036313;28;20017;-73
2021/07/04 07:53:02;;;;;;;2.40;2.20;;;;;;;;;;5046978;28;20099;-74
2021/07/04 07:55:27;;;;;;;2.30;2.10;;;;;;;;;;5032207;28;20716;-76
2021/07/04 07:57:53;;;;;;;1.90;1.80;;;;;;;;;;5032082;28;20494;-73
2021/07/04 08:00:18;;;;;;;2.33;2.20;;;;;;;;;;5030451;28;20024;-73
2021/07/04 08:02:43;;;;;;;2.30;2.20;;;;;;;;;;5029986;28;20276;-74
2021/07/04 08:05:09;;;;;;;2.65;2.45;;;;;;;;;;5034782;28;20024;-72
2021/07/04 08:07:36;;;;;;;2.92;2.13;;;;;;;;;;5035194;28;20091;-72
2021/07/04 08:10:02;;;;;;;2.75;2.28;;;;;;;;;;5031393;28;20040;-73
2021/07/04 08:12:27;;;;;;;3.28;2.45;;;;;;;;;;5030089;28;20120;-73
2021/07/04 08:14:52;;;;;;;2.80;2.60;;;;;;;;;;5031714;28;20026;-73
2021/07/04 08:17:18;;;;;;;2.60;2.40;;;;;;;;;;5034017;28;20024;-74
2021/07/04 08:19:43;;;;;;;3.20;2.93;;;;;;;;;;5030388;28;20029;-73
2021/07/04 08:22:08;;;;;;;3.43;3.13;;;;;;;;;;5037842;28;20272;-73
2021/07/04 08:24:33;;;;;;;3.70;3.30;;;;;;;;;;5031035;28;20276;-72
2021/07/04 08:26:58;;;;;;;2.90;2.70;;;;;;;;;;5030094;28;20607;-73
2021/07/04 08:29:24;;;;;;;2.85;2.72;;;;;;;;;;5033440;28;20009;-73
2021/07/04 08:31:49;;;;;;;4.28;2.88;;;;;;;;;;5031554;28;20725;-73
2021/07/04 08:34:14;;;;;;;3.25;3.05;;;;;;;;;;5030788;28;20033;-73
2021/07/04 08:36:39;;;;;;;3.17;2.97;;;;;;;;;;5037429;28;20088;-73
2021/07/04 08:39:05;;;;;;;2.70;2.50;;;;;;;;;;5037570;28;20124;-73
2021/07/04 08:41:30;;;;;;;2.90;2.70;;;;;;;;;;5031798;28;20256;-72
2021/07/04 08:43:56;;;;;;;2.58;2.47;;;;;;;;;;5029377;28;20149;-73
2021/07/04 08:46:21;;;;;;;2.90;2.70;;;;;;;;;;5031115;28;20033;-73
2021/07/04 08:48:46;;;;;;;2.80;2.70;;;;;;;;;;5030014;28;20026;-73
2021/07/04 08:51:12;;;;;;;2.70;2.50;;;;;;;;;;5035209;28;20082;-73
2021/07/04 08:53:37;;;;;;;2.22;2.03;;;;;;;;;;5046969;28;20362;-73
2021/07/04 08:56:04;;;;;;;2.90;2.15;;;;;;;;;;5050985;28;20072;-74
2021/07/04 08:58:29;;;;;;;2.20;2.10;;;;;;;;;;5051109;28;20029;-73
2021/07/04 09:01:10;;;;;;;2.08;1.98;;;;;;;;;;5050880;28;20207;-73
2021/07/04 09:03:35;;;;;;;2.20;2.10;;;;;;;;;;5050050;28;20025;-73
2021/07/04 09:06:01;;;;;;;1.98;1.88;;;;;;;;;;5048903;28;20083;-72
2021/07/04 09:08:26;;;;;;;1.87;1.77;;;;;;;;;;5052423;28;20504;-72
2021/07/04 09:11:10;;;;;;;1.97;1.87;;;;;;;;;;5049115;28;20298;-73
2021/07/04 09:13:36;;;;;;;1.83;1.73;;;;;;;;;;5050046;28;20068;-74
2021/07/04 09:16:02;;;;;;;1.90;1.80;;;;;;;;;;5050726;28;20510;-73
2021/07/04 09:18:27;;;;;;;2.00;1.90;;;;;;;;;;5050360;28;20025;-72
2021/07/04 09:20:52;;;;;;;2.10;2.00;;;;;;;;;;5047503;28;20027;-73
2021/07/04 09:23:30;;;;;;;2.40;2.30;;;;;;;;;;5031709;28;20681;-72
2021/07/04 09:25:55;;;;;;;2.08;1.88;;;;;;;;;;5029169;28;20288;-73
2021/07/04 09:28:22;;;;;;;1.63;1.53;;;;;;;;;;5030531;28;20061;-72
2021/07/04 09:30:50;;;;;;;1.23;1.23;;;;;;;;;;5030480;28;20265;-72
2021/07/04 09:33:17;;;;;;;1.50;1.42;;;;;;;;;;5028475;28;20034;-73
2021/07/04 09:36:15;;;;;;;1.27;1.20;;;;;;;;;;5033966;28;20064;-73
2021/07/04 09:38:42;;;;;;;1.20;1.20;;;;;;;;;;5027247;28;20029;-73
2021/07/04 09:41:09;;;;;;;1.20;1.10;;;;;;;;;;5050954;28;20025;-72
2021/07/04 09:43:35;;;;;;;1.10;1.10;;;;;;;;;;5048264;28;20041;-73
2021/07/04 09:46:01;;;;;;;1.40;1.30;;;;;;;;;;5048589;28;20436;-73
2021/07/04 09:48:29;;;;;;;1.40;1.30;;;;;;;;;;5048765;28;20032;-73
2021/07/04 09:50:56;;;;;;;1.50;1.40;;;;;;;;;;5046868;28;20042;-72
2021/07/04 09:53:31;;;;;;;1.52;1.33;;;;;;;;;;5031267;28;20021;-72
2021/07/04 09:56:06;;;;;;;1.42;1.30;;;;;;;;;;5029816;28;20095;-72
2021/07/04 09:58:33;;;;;;;1.35;0.98;;;;;;;;;;5030125;28;20038;-72
2021/07/04 10:00:58;;;;;;;1.40;1.30;;;;;;;;;;5029889;28;20061;-74
2021/07/04 10:03:24;;;;;;;2.07;1.43;;;;;;;;;;5029370;28;20144;-72
2021/07/04 10:05:59;;;;;;;1.30;1.30;;;;;;;;;;5031104;28;20279;-73
2021/07/04 10:08:31;;;;;;;1.30;1.20;;;;;;;;;;5038490;28;20033;-73
2021/07/04 10:11:00;;;;;;;1.30;1.20;;;;;;;;;;5029674;28;20069;-73
2021/07/04 10:13:26;;;;;;;1.35;1.30;;;;;;;;;;5027560;28;20482;-72
2021/07/04 10:15:51;;;;;;;2.15;1.40;;;;;;;;;;5028264;28;20045;-74
2021/07/04 10:18:17;;;;;;;1.30;1.30;;;;;;;;;;5029671;28;20028;-73
2021/07/04 10:20:43;;;;;;;1.50;1.40;;;;;;;;;;5031365;28;20463;-75
2021/07/04 10:23:09;;;;;;;1.50;1.40;;;;;;;;;;5030658;28;20096;-73
2021/07/04 10:25:35;;;;;;;1.33;1.23;;;;;;;;;;5028737;28;20030;-73
2021/07/04 10:28:00;;;;;;;2.00;1.50;;;;;;;;;;5029363;28;20026;-71
2021/07/04 10:30:26;;;;;;;1.40;1.30;;;;;;;;;;5029426;28;20029;-72
2021/07/04 10:33:03;;;;;;;1.20;1.20;;;;;;;;;;5028840;28;20091;-72
2021/07/04 10:35:28;;;;;;;1.40;1.30;;;;;;;;;;5031139;28;20482;-72
2021/07/04 10:38:10;;;;;;;1.57;1.47;;;;;;;;;;5030406;28;20037;-72
2021/07/04 10:40:35;;;;;;;1.45;1.30;;;;;;;;;;5029037;28;20044;-72
2021/07/04 10:43:01;;;;;;;1.30;1.20;;;;;;;;;;5027393;28;20391;-74
2021/07/04 10:45:29;;;;;;;1.37;1.20;;;;;;;;;;5028869;28;20040;-74
2021/07/04 10:48:18;;;;;;;1.48;1.40;;;;;;;;;;5027257;28;20275;-72
2021/07/04 10:51:02;;;;;;;1.60;1.50;;;;;;;;;;5024253;28;20037;-72
2021/07/04 10:53:46;;;;;;;1.50;1.40;;;;;;;;;;5035897;28;20075;-73
2021/07/04 10:56:41;;;;;;;1.60;1.52;;;;;;;;;;5029012;28;20414;-72
2021/07/04 10:59:13;;;;;;;1.52;1.42;;;;;;;;;;5016338;28;20033;-72
2021/07/04 11:01:52;;;;;;;1.35;1.35;;;;;;;;;;5027116;28;20029;-72
2021/07/04 11:04:27;;;;;;;1.50;1.40;;;;;;;;;;5026832;28;20045;-71
2021/07/04 11:06:57;;;;;;;1.40;1.30;;;;;;;;;;5037508;28;20049;-74
2021/07/04 11:09:22;;;;;;;1.70;1.60;;;;;;;;;;5041079;28;20112;-74
2021/07/04 11:11:47;;;;;;;1.80;1.70;;;;;;;;;;5048574;28;20091;-73
2021/07/04 11:14:12;;;;;;;1.60;1.50;;;;;;;;;;5048617;28;20025;-72
2021/07/04 11:16:58;;;;;;;1.70;1.60;;;;;;;;;;5048359;28;20276;-73
2021/07/04 11:19:23;;;;;;;1.55;1.45;;;;;;;;;;5048427;28;20268;-73
2021/07/04 11:21:49;;;;;;;1.63;1.53;;;;;;;;;;5047342;28;20040;-73
2021/07/04 11:24:15;;;;;;;1.17;1.17;;;;;;;;;;5027721;28;21076;-72
2021/07/04 11:26:41;;;;;;;1.63;1.52;;;;;;;;;;5030593;28;20021;-74
2021/07/04 11:29:12;;;;;;;1.30;1.30;;;;;;;;;;5028846;28;20549;-73
2021/07/04 11:31:39;;;;;;;1.65;1.55;;;;;;;;;;5027329;28;20037;-72
2021/07/04 11:34:05;;;;;;;2.15;1.42;;;;;;;;;;5028024;28;20087;-73
2021/07/04 11:36:31;;;;;;;1.80;1.70;;;;;;;;;;5034315;28;20041;-73
2021/07/04 11:38:59;;;;;;;1.45;1.35;;;;;;;;;;5028775;28;20399;-75
2021/07/04 11:41:29;;;;;;;1.30;1.20;;;;;;;;;;5030425;28;20565;-74
2021/07/04 11:43:56;;;;;;;1.30;1.20;;;;;;;;;;5027879;28;20030;-73
2021/07/04 11:46:22;;;;;;;1.42;1.33;;;;;;;;;;5028402;28;20060;-74
2021/07/04 11:48:52;;;;;;;1.27;1.27;;;;;;;;;;5026900;28;20616;-73
2021/07/04 11:51:21;;;;;;;1.52;1.42;;;;;;;;;;5031730;28;20025;-73
2021/07/04 11:53:47;;;;;;;1.65;1.55;;;;;;;;;;5038864;28;20078;-73
2021/07/04 11:56:13;;;;;;;1.60;1.50;;;;;;;;;;5030153;28;20033;-73
2021/07/04 11:58:38;;;;;;;1.88;1.77;;;;;;;;;;5028058;28;20034;-73
2021/07/04 12:01:13;;;;;;;2.15;1.65;;;;;;;;;;5028059;28;20499;-73
2021/07/04 12:03:39;;;;;;;1.50;1.40;;;;;;;;;;5027677;28;20030;-73
2021/07/04 12:06:06;;;;;;;1.55;1.45;;;;;;;;;;5028100;28;20029;-73
2021/07/04 12:08:51;;;;;;;1.70;1.60;;;;;;;;;;5035016;28;20045;-73
2021/07/04 12:11:17;;;;;;;1.52;1.52;;;;;;;;;;5028620;28;20044;-73
2021/07/04 12:13:43;;;;;;;1.75;1.65;;;;;;;;;;5028222;28;20030;-73
2021/07/04 12:16:08;;;;;;;2.00;1.80;;;;;;;;;;5031811;28;20045;-72
2021/07/04 12:18:35;;;;;;;2.47;1.85;;;;;;;;;;5030727;28;20030;-73
2021/07/04 12:21:01;;;;;;;2.10;2.00;;;;;;;;;;5031989;28;20395;-73
2021/07/04 12:23:26;;;;;;;1.60;1.40;;;;;;;;;;5054366;28;20044;-73
2021/07/04 12:25:51;;;;;;;1.70;1.60;;;;;;;;;;5031736;28;20483;-73
2021/07/04 12:28:18;;;;;;;1.88;1.77;;;;;;;;;;5030519;28;20018;-73
2021/07/04 12:30:44;;;;;;;1.73;1.63;;;;;;;;;;5031655;28;20087;-73
2021/07/04 12:33:17;;;;;;;1.70;1.60;;;;;;;;;;5030978;28;20037;-73
2021/07/04 12:35:42;;;;;;;1.80;1.70;;;;;;;;;;5033617;28;20057;-74
2021/07/04 12:38:21;;;;;;;2.10;1.90;;;;;;;;;;5040406;28;20052;-73
2021/07/04 12:40:53;;;;;;;1.60;1.50;;;;;;;;;;5034366;28;20049;-73
2021/07/04 12:43:20;;;;;;;1.55;1.45;;;;;;;;;;5031257;28;20030;-73
2021/07/04 12:45:46;;;;;;;1.67;1.58;;;;;;;;;;5031631;28;20029;-74
2021/07/04 12:48:13;;;;;;;1.80;1.70;;;;;;;;;;5031515;28;20040;-73
2021/07/04 12:50:39;;;;;;;2.33;1.95;;;;;;;;;;5033324;28;20017;-73
2021/07/04 12:53:05;;;;;;;2.13;1.92;;;;;;;;;;5042014;28;20033;-73
2021/07/04 12:55:35;;;;;;;1.58;1.48;;;;;;;;;;5031066;28;20041;-73
2021/07/04 12:58:18;;;;;;;1.60;1.50;;;;;;;;;;5031108;28;20036;-72
2021/07/04 13:00:43;;;;;;;2.05;1.85;;;;;;;;;;5031124;28;20491;-73
2021/07/04 13:03:08;;;;;;;2.07;1.97;;;;;;;;;;5030450;28;20108;-73
2021/07/04 13:05:37;;;;;;;1.80;1.70;;;;;;;;;;5033161;28;20013;-73
2021/07/04 13:08:09;;;;;;;2.10;1.92;;;;;;;;;;5034927;28;20352;-73
2021/07/04 13:10:35;;;;;;;2.33;2.22;;;;;;;;;;5031201;28;20042;-73
2021/07/04 13:13:06;;;;;;;2.15;2.05;;;;;;;;;;5030262;28;20064;-73
2021/07/04 13:15:32;;;;;;;;;;;;;;;;;;5029813;28;20529;-73
2021/07/04 13:17:59;;;;;;;2.08;1.98;;;;;;;;;;5030995;28;20371;-73
2021/07/04 13:20:25;;;;;;;2.13;2.03;;;;;;;;;;5032794;28;20386;-73
2021/07/04 13:22:51;;;;;;;1.88;1.77;;;;;;;;;;5038179;28;20029;-73
2021/07/04 13:25:21;;;;;;;2.10;2.00;;;;;;;;;;5030362;28;20052;-72
2021/07/04 13:28:02;;;;;;;1.80;1.70;;;;;;;;;;5030526;28;20036;-73
2021/07/04 13:30:28;;;;;;;2.03;1.92;;;;;;;;;;5029073;28;20029;-72
2021/07/04 13:33:03;;;;;;;1.90;1.80;;;;;;;;;;5029851;28;20025;-74
2021/07/04 13:35:33;;;;;;;1.80;1.70;;;;;;;;;;5032029;28;20087;-73
2021/07/04 13:37:59;;;;;;;2.03;1.92;;;;;;;;;;5038645;28;20553;-73
2021/07/04 13:40:26;;;;;;;2.17;1.95;;;;;;;;;;5028551;28;20045;-72
2021/07/04 13:42:53;;;;;;;1.77;1.67;;;;;;;;;;5029619;28;20033;-73
2021/07/04 13:45:27;;;;;;;2.00;1.90;;;;;;;;;;5030034;28;20043;-73
2021/07/04 13:47:53;;;;;;;2.00;1.90;;;;;;;;;;5028536;28;20044;-73
2021/07/04 13:50:19;;;;;;;2.00;1.90;;;;;;;;;;5030579;28;20171;-73
2021/07/04 13:52:44;;;;;;;1.90;1.80;;;;;;;;;;5031974;28;20029;-74
2021/07/04 13:55:10;;;;;;;1.80;1.70;;;;;;;;;;5029626;28;20053;-73
2021/07/04 13:57:35;;;;;;;1.80;1.70;;;;;;;;;;5030056;28;20273;-73
2021/07/04 14:00:00;;;;;;;2.37;2.27;;;;;;;;;;5030066;28;20024;-73
2021/07/04 14:02:25;;;;;;;2.20;2.10;;;;;;;;;;5031045;28;20347;-73
2021/07/04 14:04:50;;;;;;;2.37;2.17;;;;;;;;;;4958912;28;20316;-74
2021/07/04 14:07:16;;;;;;;2.43;2.10;;;;;;;;;;5030568;28;20501;-73
2021/07/04 14:09:42;;;;;;;1.60;1.50;;;;;;;;;;5028065;28;20160;-73
2021/07/04 14:12:07;;;;;;;1.63;1.52;;;;;;;;;;5029045;28;20033;-71
2021/07/04 14:14:33;;;;;;;1.80;1.70;;;;;;;;;;5031130;28;20387;-73
2021/07/04 14:17:01;;;;;;;2.25;1.90;;;;;;;;;;5028521;28;20672;-73
2021/07/04 14:19:26;;;;;;;1.90;1.77;;;;;;;;;;5028263;28;20082;-73
2021/07/04 14:21:52;;;;;;;1.88;1.77;;;;;;;;;;5029703;28;20131;-73
2021/07/04 14:24:17;;;;;;;2.30;2.10;;;;;;;;;;5028976;28;20402;-73
2021/07/04 14:26:43;;;;;;;2.65;1.90;;;;;;;;;;5031493;28;20013;-74
2021/07/04 14:29:09;;;;;;;2.00;1.90;;;;;;;;;;5029601;28;20509;-73
2021/07/04 14:31:35;;;;;;;2.42;2.22;;;;;;;;;;5027988;28;20273;-73
2021/07/04 14:34:00;;;;;;;2.25;1.90;;;;;;;;;;5027913;28;20039;-73
2021/07/04 14:36:25;;;;;;;1.90;1.80;;;;;;;;;;5028718;28;20060;-75